Terminal Aerodrome Forecast
Issued by NWS Pocatello, ID

Home | Current Version | Previous Version | Text Only | Print | Product List | Glossary On
Versions: 1 2 3 4 5 6 7 8 9 10 11 12 13 14 15 16 17 18 19 20 21 22
000
FTUS45 KPIH 202300
TAFPIH
TAF
KPIH 202335Z 2100/2124 19015KT P6SM -SHRA SCT015 OVC025
     FM210600 20015KT 5SM -RA BR SCT008 BKN015
      TEMPO 2109/2113 2SM -RA BR SCT004 BKN008
     FM211700 23030G40KT P6SM VCSH SCT015 BKN025=

USA.gov is the U.S. government's official web portal to all federal, state and local government web resources and services.